sensor_id;sensor_type;location;lat;lon;timestamp;temperature;humidity
12815;DHT22;6472;52.328;13.070;2024-03-23T00:54:00;7.20;99.90
12815;DHT22;6472;52.328;13.070;2024-03-23T00:56:29;7.20;99.90
12815;DHT22;6472;52.328;13.070;2024-03-23T00:58:56;7.20;99.90
12815;DHT22;6472;52.328;13.070;2024-03-23T01:01:24;7.20;99.90
12815;DHT22;6472;52.328;13.070;2024-03-23T01:03:50;7.20;99.90
12815;DHT22;6472;52.328;13.070;2024-03-23T01:06:17;7.20;99.90
12815;DHT22;6472;52.328;13.070;2024-03-23T01:08:43;7.20;99.90
12815;DHT22;6472;52.328;13.070;2024-03-23T01:11:10;7.20;99.90
12815;DHT22;6472;52.328;13.070;2024-03-23T01:13:37;7.20;99.90
12815;DHT22;6472;52.328;13.070;2024-03-23T01:16:06;7.20;99.90
12815;DHT22;6472;52.328;13.070;2024-03-23T01:18:32;7.10;99.90
12815;DHT22;6472;52.328;13.070;2024-03-23T01:21:00;7.10;99.90
12815;DHT22;6472;52.328;13.070;2024-03-23T01:23:26;7.10;99.90
12815;DHT22;6472;52.328;13.070;2024-03-23T01:25:53;7.10;99.90
12815;DHT22;6472;52.328;13.070;2024-03-23T01:28:20;7.10;99.90
12815;DHT22;6472;52.328;13.070;2024-03-23T01:30:47;7.10;99.90
12815;DHT22;6472;52.328;13.070;2024-03-23T01:33:15;7.10;99.90
12815;DHT22;6472;52.328;13.070;2024-03-23T01:35:43;7.10;99.90
12815;DHT22;6472;52.328;13.070;2024-03-23T01:38:09;7.00;99.90
12815;DHT22;6472;52.328;13.070;2024-03-23T01:40:39;7.00;99.90
12815;DHT22;6472;52.328;13.070;2024-03-23T01:43:07;7.00;99.90
12815;DHT22;6472;52.328;13.070;2024-03-23T01:45:34;7.00;99.90
12815;DHT22;6472;52.328;13.070;2024-03-23T01:48:01;7.00;99.90
12815;DHT22;6472;52.328;13.070;2024-03-23T01:50:31;7.00;99.90
12815;DHT22;6472;52.328;13.070;2024-03-23T01:53:00;7.00;99.90
12815;DHT22;6472;52.328;13.070;2024-03-23T01:55:27;7.00;99.90
12815;DHT22;6472;52.328;13.070;2024-03-23T01:57:53;7.00;99.90
12815;DHT22;6472;52.328;13.070;2024-03-23T02:00:23;7.00;99.90
12815;DHT22;6472;52.328;13.070;2024-03-23T02:02:50;7.10;99.90
12815;DHT22;6472;52.328;13.070;2024-03-23T02:05:17;7.00;99.90
12815;DHT22;6472;52.328;13.070;2024-03-23T02:07:44;7.00;99.90
12815;DHT22;6472;52.328;13.070;2024-03-23T02:10:12;7.00;99.90
12815;DHT22;6472;52.328;13.070;2024-03-23T02:12:39;7.00;99.90
12815;DHT22;6472;52.328;13.070;2024-03-23T02:15:06;7.00;99.90
12815;DHT22;6472;52.328;13.070;2024-03-23T02:17:35;7.00;99.90
12815;DHT22;6472;52.328;13.070;2024-03-23T02:20:03;6.90;99.90
12815;DHT22;6472;52.328;13.070;2024-03-23T02:22:36;6.90;99.90
12815;DHT22;6472;52.328;13.070;2024-03-23T02:25:06;6.90;99.90
12815;DHT22;6472;52.328;13.070;2024-03-23T02:27:32;6.90;99.90
12815;DHT22;6472;52.328;13.070;2024-03-23T02:30:00;6.90;99.90
12815;DHT22;6472;52.328;13.070;2024-03-23T02:32:26;6.90;99.90
12815;DHT22;6472;52.328;13.070;2024-03-23T02:34:54;6.90;99.90
12815;DHT22;6472;52.328;13.070;2024-03-23T02:37:20;6.90;99.90
12815;DHT22;6472;52.328;13.070;2024-03-23T02:39:47;6.90;99.90
12815;DHT22;6472;52.328;13.070;2024-03-23T02:42:15;6.90;99.90
12815;DHT22;6472;52.328;13.070;2024-03-23T02:44:44;6.80;99.90
12815;DHT22;6472;52.328;13.070;2024-03-23T02:47:10;6.80;99.90
12815;DHT22;6472;52.328;13.070;2024-03-23T02:49:37;6.90;99.90
12815;DHT22;6472;52.328;13.070;2024-03-23T02:52:04;6.90;99.90
12815;DHT22;6472;52.328;13.070;2024-03-23T02:54:31;6.80;99.90
12815;DHT22;6472;52.328;13.070;2024-03-23T02:56:57;6.90;99.90
12815;DHT22;6472;52.328;13.070;2024-03-23T02:59:26;6.80;99.90
12815;DHT22;6472;52.328;13.070;2024-03-23T03:01:52;6.90;99.90
12815;DHT22;6472;52.328;13.070;2024-03-23T03:04:19;6.80;99.90
12815;DHT22;6472;52.328;13.070;2024-03-23T03:06:46;7.00;99.90
12815;DHT22;6472;52.328;13.070;2024-03-23T03:09:14;6.80;99.90
12815;DHT22;6472;52.328;13.070;2024-03-23T03:11:40;6.90;99.90
12815;DHT22;6472;52.328;13.070;2024-03-23T03:14:07;6.80;99.90
12815;DHT22;6472;52.328;13.070;2024-03-23T03:16:35;6.80;99.90
12815;DHT22;6472;52.328;13.070;2024-03-23T03:19:02;6.80;99.90
12815;DHT22;6472;52.328;13.070;2024-03-23T03:21:28;6.80;99.90
12815;DHT22;6472;52.328;13.070;2024-03-23T03:23:56;6.80;99.90
12815;DHT22;6472;52.328;13.070;2024-03-23T03:26:22;6.80;99.90
12815;DHT22;6472;52.328;13.070;2024-03-23T03:28:50;6.90;99.90
12815;DHT22;6472;52.328;13.070;2024-03-23T03:31:16;6.90;99.90
12815;DHT22;6472;52.328;13.070;2024-03-23T03:33:45;6.90;99.90
12815;DHT22;6472;52.328;13.070;2024-03-23T03:36:11;7.00;99.90
12815;DHT22;6472;52.328;13.070;2024-03-23T03:38:38;6.90;99.90
12815;DHT22;6472;52.328;13.070;2024-03-23T03:41:05;6.90;99.90
12815;DHT22;6472;52.328;13.070;2024-03-23T03:43:33;6.90;99.90
12815;DHT22;6472;52.328;13.070;2024-03-23T03:46:00;6.90;99.90
12815;DHT22;6472;52.328;13.070;2024-03-23T03:48:28;6.90;99.90
12815;DHT22;6472;52.328;13.070;2024-03-23T03:50:56;6.90;99.90
12815;DHT22;6472;52.328;13.070;2024-03-23T03:53:23;6.80;99.90
12815;DHT22;6472;52.328;13.070;2024-03-23T03:55:49;7.00;99.90
12815;DHT22;6472;52.328;13.070;2024-03-23T03:58:17;6.80;99.90
12815;DHT22;6472;52.328;13.070;2024-03-23T04:00:43;6.80;99.90
12815;DHT22;6472;52.328;13.070;2024-03-23T04:03:10;6.80;99.90
12815;DHT22;6472;52.328;13.070;2024-03-23T04:05:36;6.80;99.90
12815;DHT22;6472;52.328;13.070;2024-03-23T04:08:07;6.80;99.90
12815;DHT22;6472;52.328;13.070;2024-03-23T04:10:33;6.80;99.90
12815;DHT22;6472;52.328;13.070;2024-03-23T04:13:01;6.90;99.90
12815;DHT22;6472;52.328;13.070;2024-03-23T04:15:30;6.80;99.90
12815;DHT22;6472;52.328;13.070;2024-03-23T04:17:57;6.70;99.90
12815;DHT22;6472;52.328;13.070;2024-03-23T04:20:23;6.70;99.90
12815;DHT22;6472;52.328;13.070;2024-03-23T04:22:50;6.60;99.90
12815;DHT22;6472;52.328;13.070;2024-03-23T04:25:18;6.50;99.90
12815;DHT22;6472;52.328;13.070;2024-03-23T04:27:45;6.40;99.90
12815;DHT22;6472;52.328;13.070;2024-03-23T04:30:12;6.30;99.90
12815;DHT22;6472;52.328;13.070;2024-03-23T04:32:41;6.30;99.90
12815;DHT22;6472;52.328;13.070;2024-03-23T04:35:08;6.30;99.90
12815;DHT22;6472;52.328;13.070;2024-03-23T04:37:36;6.20;99.90
12815;DHT22;6472;52.328;13.070;2024-03-23T04:40:04;6.20;99.90
12815;DHT22;6472;52.328;13.070;2024-03-23T04:42:34;6.10;99.90
12815;DHT22;6472;52.328;13.070;2024-03-23T04:45:02;6.20;99.90
12815;DHT22;6472;52.328;13.070;2024-03-23T04:47:29;6.10;99.90
12815;DHT22;6472;52.328;13.070;2024-03-23T04:49:56;6.20;99.90
12815;DHT22;6472;52.328;13.070;2024-03-23T04:52:23;6.10;99.90
12815;DHT22;6472;52.328;13.070;2024-03-23T04:54:50;6.10;99.90
12815;DHT22;6472;52.328;13.070;2024-03-23T04:57:17;6.00;99.90
12815;DHT22;6472;52.328;13.070;2024-03-23T04:59:45;5.90;99.90
12815;DHT22;6472;52.328;13.070;2024-03-23T05:02:15;6.00;99.90
12815;DHT22;6472;52.328;13.070;2024-03-23T05:04:42;6.00;99.90
12815;DHT22;6472;52.328;13.070;2024-03-23T05:07:09;6.00;99.90
12815;DHT22;6472;52.328;13.070;2024-03-23T05:09:35;6.00;99.90
12815;DHT22;6472;52.328;13.070;2024-03-23T05:12:03;6.00;99.90
12815;DHT22;6472;52.328;13.070;2024-03-23T05:14:29;5.90;99.90
12815;DHT22;6472;52.328;13.070;2024-03-23T05:16:58;5.80;99.90
12815;DHT22;6472;52.328;13.070;2024-03-23T05:19:24;5.90;99.90
12815;DHT22;6472;52.328;13.070;2024-03-23T05:21:51;5.90;99.90
12815;DHT22;6472;52.328;13.070;2024-03-23T05:24:19;5.90;99.90
12815;DHT22;6472;52.328;13.070;2024-03-23T05:26:46;5.90;99.90
12815;DHT22;6472;52.328;13.070;2024-03-23T05:29:12;5.90;99.90
12815;DHT22;6472;52.328;13.070;2024-03-23T05:31:39;5.90;99.90
12815;DHT22;6472;52.328;13.070;2024-03-23T05:34:09;5.90;99.90
12815;DHT22;6472;52.328;13.070;2024-03-23T05:36:36;5.80;99.90
12815;DHT22;6472;52.328;13.070;2024-03-23T05:39:02;5.90;99.90
12815;DHT22;6472;52.328;13.070;2024-03-23T05:41:33;5.80;99.90
12815;DHT22;6472;52.328;13.070;2024-03-23T05:44:02;5.80;99.90
12815;DHT22;6472;52.328;13.070;2024-03-23T05:46:30;5.80;99.90
12815;DHT22;6472;52.328;13.070;2024-03-23T05:49:01;5.90;99.90
12815;DHT22;6472;52.328;13.070;2024-03-23T05:51:30;5.80;99.90
12815;DHT22;6472;52.328;13.070;2024-03-23T05:53:57;5.90;99.90
12815;DHT22;6472;52.328;13.070;2024-03-23T05:56:24;5.80;99.90
12815;DHT22;6472;52.328;13.070;2024-03-23T05:58:51;5.80;99.90
12815;DHT22;6472;52.328;13.070;2024-03-23T06:01:18;5.90;99.90
12815;DHT22;6472;52.328;13.070;2024-03-23T06:03:45;5.90;99.90
12815;DHT22;6472;52.328;13.070;2024-03-23T06:06:12;5.90;99.90
12815;DHT22;6472;52.328;13.070;2024-03-23T06:08:40;6.00;99.90
12815;DHT22;6472;52.328;13.070;2024-03-23T06:11:07;6.10;99.90
12815;DHT22;6472;52.328;13.070;2024-03-23T06:13:33;6.10;99.90
12815;DHT22;6472;52.328;13.070;2024-03-23T06:16:01;6.20;99.90
12815;DHT22;6472;52.328;13.070;2024-03-23T06:18:27;6.30;99.90
12815;DHT22;6472;52.328;13.070;2024-03-23T06:20:54;6.20;99.90
12815;DHT22;6472;52.328;13.070;2024-03-23T06:23:21;6.20;99.90
12815;DHT22;6472;52.328;13.070;2024-03-23T06:25:49;6.20;99.90
12815;DHT22;6472;52.328;13.070;2024-03-23T06:28:15;6.20;99.90
12815;DHT22;6472;52.328;13.070;2024-03-23T06:30:44;6.10;99.90
12815;DHT22;6472;52.328;13.070;2024-03-23T06:33:10;6.20;99.90
12815;DHT22;6472;52.328;13.070;2024-03-23T06:35:37;6.10;99.90
12815;DHT22;6472;52.328;13.070;2024-03-23T06:38:03;6.10;99.90
12815;DHT22;6472;52.328;13.070;2024-03-23T06:40:31;6.10;99.90
12815;DHT22;6472;52.328;13.070;2024-03-23T06:42:59;6.20;99.90
12815;DHT22;6472;52.328;13.070;2024-03-23T06:45:26;6.20;99.90
12815;DHT22;6472;52.328;13.070;2024-03-23T06:47:52;6.20;99.90
12815;DHT22;6472;52.328;13.070;2024-03-23T06:50:21;6.20;99.90
12815;DHT22;6472;52.328;13.070;2024-03-23T06:52:49;6.20;99.90
12815;DHT22;6472;52.328;13.070;2024-03-23T06:55:17;6.20;99.90
12815;DHT22;6472;52.328;13.070;2024-03-23T06:57:43;6.20;99.90
12815;DHT22;6472;52.328;13.070;2024-03-23T07:00:13;6.20;99.90
12815;DHT22;6472;52.328;13.070;2024-03-23T07:02:41;6.20;99.90
12815;DHT22;6472;52.328;13.070;2024-03-23T07:05:09;6.20;99.90
12815;DHT22;6472;52.328;13.070;2024-03-23T07:07:37;6.20;99.90
12815;DHT22;6472;52.328;13.070;2024-03-23T07:10:06;6.20;99.90
12815;DHT22;6472;52.328;13.070;2024-03-23T07:12:32;6.20;99.90
12815;DHT22;6472;52.328;13.070;2024-03-23T07:14:59;6.20;99.90
12815;DHT22;6472;52.328;13.070;2024-03-23T07:17:26;6.20;99.90
12815;DHT22;6472;52.328;13.070;2024-03-23T07:19:53;6.20;99.90
12815;DHT22;6472;52.328;13.070;2024-03-23T07:22:19;6.30;99.90
12815;DHT22;6472;52.328;13.070;2024-03-23T07:24:47;6.40;99.90
12815;DHT22;6472;52.328;13.070;2024-03-23T07:27:13;6.40;99.90
12815;DHT22;6472;52.328;13.070;2024-03-23T07:29:40;6.40;99.90
12815;DHT22;6472;52.328;13.070;2024-03-23T07:32:06;6.40;99.90
12815;DHT22;6472;52.328;13.070;2024-03-23T07:34:35;6.50;99.90
12815;DHT22;6472;52.328;13.070;2024-03-23T07:37:01;6.50;99.90
12815;DHT22;6472;52.328;13.070;2024-03-23T07:39:28;6.60;99.90
12815;DHT22;6472;52.328;13.070;2024-03-23T07:41:55;6.60;99.90
12815;DHT22;6472;52.328;13.070;2024-03-23T07:44:21;6.50;99.90
12815;DHT22;6472;52.328;13.070;2024-03-23T07:46:48;6.60;99.90
12815;DHT22;6472;52.328;13.070;2024-03-23T07:49:14;6.60;99.90
12815;DHT22;6472;52.328;13.070;2024-03-23T07:51:42;6.50;99.90
12815;DHT22;6472;52.328;13.070;2024-03-23T07:54:08;6.50;99.90
12815;DHT22;6472;52.328;13.070;2024-03-23T07:56:35;6.50;99.90
12815;DHT22;6472;52.328;13.070;2024-03-23T07:59:01;6.40;99.90
12815;DHT22;6472;52.328;13.070;2024-03-23T08:01:29;6.40;99.90
12815;DHT22;6472;52.328;13.070;2024-03-23T08:03:55;6.30;99.90
12815;DHT22;6472;52.328;13.070;2024-03-23T08:06:22;6.20;99.90
12815;DHT22;6472;52.328;13.070;2024-03-23T08:08:52;6.30;99.90
12815;DHT22;6472;52.328;13.070;2024-03-23T08:11:25;6.20;99.90
12815;DHT22;6472;52.328;13.070;2024-03-23T08:13:51;6.20;99.90
12815;DHT22;6472;52.328;13.070;2024-03-23T08:16:18;6.20;99.90
12815;DHT22;6472;52.328;13.070;2024-03-23T08:18:45;6.20;99.90
12815;DHT22;6472;52.328;13.070;2024-03-23T08:21:11;6.10;99.90
12815;DHT22;6472;52.328;13.070;2024-03-23T08:23:38;6.00;99.90
12815;DHT22;6472;52.328;13.070;2024-03-23T08:26:07;6.00;99.90
12815;DHT22;6472;52.328;13.070;2024-03-23T08:28:35;5.90;99.90
12815;DHT22;6472;52.328;13.070;2024-03-23T08:31:01;5.90;99.90
12815;DHT22;6472;52.328;13.070;2024-03-23T08:33:29;5.80;99.90
12815;DHT22;6472;52.328;13.070;2024-03-23T08:35:56;5.70;99.90
12815;DHT22;6472;52.328;13.070;2024-03-23T08:38:24;5.60;99.90
12815;DHT22;6472;52.328;13.070;2024-03-23T08:40:56;5.40;99.90
12815;DHT22;6472;52.328;13.070;2024-03-23T08:43:25;5.30;99.90
12815;DHT22;6472;52.328;13.070;2024-03-23T08:45:51;5.20;99.90
12815;DHT22;6472;52.328;13.070;2024-03-23T08:48:19;5.20;99.90
12815;DHT22;6472;52.328;13.070;2024-03-23T08:50:46;5.10;99.90
12815;DHT22;6472;52.328;13.070;2024-03-23T08:53:13;5.10;99.90
12815;DHT22;6472;52.328;13.070;2024-03-23T08:55:39;5.10;99.90
12815;DHT22;6472;52.328;13.070;2024-03-23T08:58:06;5.10;99.90
12815;DHT22;6472;52.328;13.070;2024-03-23T09:00:36;5.10;99.90
12815;DHT22;6472;52.328;13.070;2024-03-23T09:03:03;5.20;99.90
12815;DHT22;6472;52.328;13.070;2024-03-23T09:05:30;5.10;99.90
12815;DHT22;6472;52.328;13.070;2024-03-23T09:08:01;5.00;99.90
12815;DHT22;6472;52.328;13.070;2024-03-23T09:10:27;5.00;99.90
12815;DHT22;6472;52.328;13.070;2024-03-23T09:12:54;5.00;99.90
12815;DHT22;6472;52.328;13.070;2024-03-23T09:15:20;4.90;99.90
12815;DHT22;6472;52.328;13.070;2024-03-23T09:17:49;4.90;99.90
12815;DHT22;6472;52.328;13.070;2024-03-23T09:20:15;4.90;99.90
12815;DHT22;6472;52.328;13.070;2024-03-23T09:22:42;5.00;99.90
12815;DHT22;6472;52.328;13.070;2024-03-23T09:25:08;4.90;99.90
12815;DHT22;6472;52.328;13.070;2024-03-23T09:27:35;4.80;99.90
12815;DHT22;6472;52.328;13.070;2024-03-23T09:30:01;4.70;99.90
12815;DHT22;6472;52.328;13.070;2024-03-23T09:32:29;4.70;99.90
12815;DHT22;6472;52.328;13.070;2024-03-23T09:34:56;4.70;99.90
12815;DHT22;6472;52.328;13.070;2024-03-23T09:37:23;4.70;99.90
12815;DHT22;6472;52.328;13.070;2024-03-23T09:39:49;4.70;99.90
12815;DHT22;6472;52.328;13.070;2024-03-23T09:42:16;4.70;99.90
12815;DHT22;6472;52.328;13.070;2024-03-23T09:44:43;4.60;99.90
12815;DHT22;6472;52.328;13.070;2024-03-23T09:47:11;4.60;99.90
12815;DHT22;6472;52.328;13.070;2024-03-23T09:49:38;4.60;99.90
12815;DHT22;6472;52.328;13.070;2024-03-23T09:52:07;4.60;99.90
12815;DHT22;6472;52.328;13.070;2024-03-23T09:54:33;4.60;99.90
12815;DHT22;6472;52.328;13.070;2024-03-23T09:57:00;4.70;99.90
12815;DHT22;6472;52.328;13.070;2024-03-23T09:59:27;4.60;99.90
12815;DHT22;6472;52.328;13.070;2024-03-23T10:01:54;4.60;99.90
12815;DHT22;6472;52.328;13.070;2024-03-23T10:04:36;4.60;99.90
12815;DHT22;6472;52.328;13.070;2024-03-23T10:07:12;4.60;99.90
12815;DHT22;6472;52.328;13.070;2024-03-23T10:09:38;4.70;99.90
12815;DHT22;6472;52.328;13.070;2024-03-23T10:12:10;4.70;99.90
12815;DHT22;6472;52.328;13.070;2024-03-23T10:14:36;4.80;99.90
12815;DHT22;6472;52.328;13.070;2024-03-23T10:17:14;4.80;99.90
12815;DHT22;6472;52.328;13.070;2024-03-23T10:19:40;4.70;99.90
12815;DHT22;6472;52.328;13.070;2024-03-23T10:22:09;4.70;99.90
12815;DHT22;6472;52.328;13.070;2024-03-23T10:24:36;5.00;99.90
12815;DHT22;6472;52.328;13.070;2024-03-23T10:27:03;4.70;99.90
12815;DHT22;6472;52.328;13.070;2024-03-23T10:29:29;4.70;99.90
12815;DHT22;6472;52.328;13.070;2024-03-23T10:32:08;4.70;99.90
12815;DHT22;6472;52.328;13.070;2024-03-23T10:34:34;4.70;99.90
12815;DHT22;6472;52.328;13.070;2024-03-23T10:37:02;4.70;99.90
12815;DHT22;6472;52.328;13.070;2024-03-23T10:39:31;4.70;99.90
12815;DHT22;6472;52.328;13.070;2024-03-23T10:42:01;4.70;99.90
12815;DHT22;6472;52.328;13.070;2024-03-23T10:44:28;4.70;99.90
12815;DHT22;6472;52.328;13.070;2024-03-23T10:46:57;4.80;99.90
12815;DHT22;6472;52.328;13.070;2024-03-23T10:49:29;4.90;99.90
12815;DHT22;6472;52.328;13.070;2024-03-23T10:52:00;5.00;99.90
12815;DHT22;6472;52.328;13.070;2024-03-23T10:54:26;5.00;99.90
12815;DHT22;6472;52.328;13.070;2024-03-23T10:57:01;5.10;99.90
12815;DHT22;6472;52.328;13.070;2024-03-23T10:59:29;5.20;99.90
12815;DHT22;6472;52.328;13.070;2024-03-23T11:01:58;5.40;99.90
12815;DHT22;6472;52.328;13.070;2024-03-23T11:04:32;5.50;99.90
12815;DHT22;6472;52.328;13.070;2024-03-23T11:07:00;5.70;99.90
12815;DHT22;6472;52.328;13.070;2024-03-23T11:09:39;5.80;99.90
12815;DHT22;6472;52.328;13.070;2024-03-23T11:12:28;6.00;99.90
12815;DHT22;6472;52.328;13.070;2024-03-23T11:15:00;6.10;99.90
12815;DHT22;6472;52.328;13.070;2024-03-23T11:17:28;6.20;99.90
12815;DHT22;6472;52.328;13.070;2024-03-23T11:19:55;6.30;99.90
12815;DHT22;6472;52.328;13.070;2024-03-23T11:22:47;6.30;99.90
12815;DHT22;6472;52.328;13.070;2024-03-23T11:25:16;6.40;99.90
12815;DHT22;6472;52.328;13.070;2024-03-23T11:27:44;6.50;99.90
12815;DHT22;6472;52.328;13.070;2024-03-23T11:30:13;6.50;99.90
12815;DHT22;6472;52.328;13.070;2024-03-23T11:32:40;6.50;99.90
12815;DHT22;6472;52.328;13.070;2024-03-23T11:35:08;6.50;99.90
12815;DHT22;6472;52.328;13.070;2024-03-23T11:37:36;6.50;99.90
12815;DHT22;6472;52.328;13.070;2024-03-23T11:40:20;6.60;99.90
12815;DHT22;6472;52.328;13.070;2024-03-23T11:42:55;6.70;99.90
12815;DHT22;6472;52.328;13.070;2024-03-23T11:45:22;6.80;99.90
12815;DHT22;6472;52.328;13.070;2024-03-23T11:47:48;7.00;99.90
12815;DHT22;6472;52.328;13.070;2024-03-23T11:50:20;7.10;99.90
12815;DHT22;6472;52.328;13.070;2024-03-23T11:52:46;7.30;99.90
12815;DHT22;6472;52.328;13.070;2024-03-23T11:55:13;7.40;99.90
12815;DHT22;6472;52.328;13.070;2024-03-23T11:57:39;7.50;99.90
12815;DHT22;6472;52.328;13.070;2024-03-23T12:00:23;7.50;99.90
12815;DHT22;6472;52.328;13.070;2024-03-23T12:02:49;7.40;99.90
12815;DHT22;6472;52.328;13.070;2024-03-23T12:05:17;7.30;99.90
12815;DHT22;6472;52.328;13.070;2024-03-23T12:07:43;7.20;99.90
12815;DHT22;6472;52.328;13.070;2024-03-23T12:10:10;7.20;99.90
12815;DHT22;6472;52.328;13.070;2024-03-23T12:12:36;7.20;99.90
12815;DHT22;6472;52.328;13.070;2024-03-23T12:15:04;7.20;99.90
12815;DHT22;6472;52.328;13.070;2024-03-23T12:17:33;7.10;99.90
12815;DHT22;6472;52.328;13.070;2024-03-23T12:20:02;7.20;99.90
12815;DHT22;6472;52.328;13.070;2024-03-23T12:22:28;7.10;99.90
12815;DHT22;6472;52.328;13.070;2024-03-23T12:24:56;7.00;99.90
12815;DHT22;6472;52.328;13.070;2024-03-23T12:27:22;6.90;99.90
12815;DHT22;6472;52.328;13.070;2024-03-23T12:29:50;6.70;99.90
12815;DHT22;6472;52.328;13.070;2024-03-23T12:32:15;6.50;99.90
12815;DHT22;6472;52.328;13.070;2024-03-23T12:34:45;6.40;99.90
12815;DHT22;6472;52.328;13.070;2024-03-23T12:37:12;6.40;99.90
12815;DHT22;6472;52.328;13.070;2024-03-23T12:39:40;6.40;99.90
12815;DHT22;6472;52.328;13.070;2024-03-23T12:42:06;6.40;99.90
12815;DHT22;6472;52.328;13.070;2024-03-23T12:44:33;6.40;99.90
12815;DHT22;6472;52.328;13.070;2024-03-23T12:46:59;6.40;99.90
12815;DHT22;6472;52.328;13.070;2024-03-23T12:49:26;6.30;99.90
12815;DHT22;6472;52.328;13.070;2024-03-23T12:51:57;6.30;99.90
12815;DHT22;6472;52.328;13.070;2024-03-23T12:54:25;6.20;99.90
12815;DHT22;6472;52.328;13.070;2024-03-23T12:56:51;6.20;99.90
12815;DHT22;6472;52.328;13.070;2024-03-23T12:59:18;6.30;99.90
12815;DHT22;6472;52.328;13.070;2024-03-23T13:01:44;6.50;99.90
12815;DHT22;6472;52.328;13.070;2024-03-23T13:04:11;6.70;99.90
12815;DHT22;6472;52.328;13.070;2024-03-23T13:06:37;7.00;99.90
12815;DHT22;6472;52.328;13.070;2024-03-23T13:09:05;7.30;99.90
12815;DHT22;6472;52.328;13.070;2024-03-23T13:11:32;7.60;99.90
12815;DHT22;6472;52.328;13.070;2024-03-23T13:13:59;7.80;99.90
12815;DHT22;6472;52.328;13.070;2024-03-23T13:16:25;7.90;99.90
12815;DHT22;6472;52.328;13.070;2024-03-23T13:18:52;8.00;99.90
12815;DHT22;6472;52.328;13.070;2024-03-23T13:21:18;8.00;99.90
12815;DHT22;6472;52.328;13.070;2024-03-23T13:23:47;7.80;99.90
12815;DHT22;6472;52.328;13.070;2024-03-23T13:26:15;7.70;99.90
12815;DHT22;6472;52.328;13.070;2024-03-23T13:28:42;7.60;99.90
12815;DHT22;6472;52.328;13.070;2024-03-23T13:31:08;7.50;99.90
12815;DHT22;6472;52.328;13.070;2024-03-23T13:33:35;7.50;99.90
12815;DHT22;6472;52.328;13.070;2024-03-23T13:36:01;7.50;99.90
12815;DHT22;6472;52.328;13.070;2024-03-23T13:38:29;7.50;99.90
12815;DHT22;6472;52.328;13.070;2024-03-23T13:40:57;7.60;99.90
12815;DHT22;6472;52.328;13.070;2024-03-23T13:43:25;7.70;99.90
12815;DHT22;6472;52.328;13.070;2024-03-23T13:45:54;7.80;99.90
12815;DHT22;6472;52.328;13.070;2024-03-23T13:48:22;7.90;99.90
12815;DHT22;6472;52.328;13.070;2024-03-23T13:50:57;7.90;99.90
12815;DHT22;6472;52.328;13.070;2024-03-23T13:53:23;7.90;99.90
12815;DHT22;6472;52.328;13.070;2024-03-23T13:55:50;7.90;99.90
12815;DHT22;6472;52.328;13.070;2024-03-23T13:58:16;8.00;99.90
12815;DHT22;6472;52.328;13.070;2024-03-23T14:00:45;8.20;99.90
12815;DHT22;6472;52.328;13.070;2024-03-23T14:03:12;8.20;99.90
12815;DHT22;6472;52.328;13.070;2024-03-23T14:05:40;8.30;99.90
12815;DHT22;6472;52.328;13.070;2024-03-23T14:08:06;8.40;99.90
12815;DHT22;6472;52.328;13.070;2024-03-23T14:10:34;8.40;99.90
12815;DHT22;6472;52.328;13.070;2024-03-23T14:13:01;8.40;99.90
12815;DHT22;6472;52.328;13.070;2024-03-23T14:15:29;8.30;99.90
12815;DHT22;6472;52.328;13.070;2024-03-23T14:17:57;8.20;99.90
12815;DHT22;6472;52.328;13.070;2024-03-23T14:20:24;8.10;99.90
12815;DHT22;6472;52.328;13.070;2024-03-23T14:22:51;8.10;99.90
12815;DHT22;6472;52.328;13.070;2024-03-23T14:25:19;8.10;99.90
12815;DHT22;6472;52.328;13.070;2024-03-23T14:27:45;8.00;99.90
12815;DHT22;6472;52.328;13.070;2024-03-23T14:30:13;7.90;99.90
12815;DHT22;6472;52.328;13.070;2024-03-23T14:32:39;7.60;99.90
12815;DHT22;6472;52.328;13.070;2024-03-23T14:35:08;7.30;99.90
12815;DHT22;6472;52.328;13.070;2024-03-23T14:37:36;6.80;99.90
12815;DHT22;6472;52.328;13.070;2024-03-23T14:40:04;6.50;99.90
12815;DHT22;6472;52.328;13.070;2024-03-23T14:42:31;6.30;99.90
12815;DHT22;6472;52.328;13.070;2024-03-23T14:44:58;6.10;99.90
12815;DHT22;6472;52.328;13.070;2024-03-23T14:47:24;5.90;99.90
12815;DHT22;6472;52.328;13.070;2024-03-23T14:49:51;5.90;99.90
12815;DHT22;6472;52.328;13.070;2024-03-23T14:52:20;6.10;99.90
12815;DHT22;6472;52.328;13.070;2024-03-23T14:54:47;6.30;99.90
12815;DHT22;6472;52.328;13.070;2024-03-23T14:57:13;6.70;99.90
12815;DHT22;6472;52.328;13.070;2024-03-23T14:59:40;7.00;99.90
12815;DHT22;6472;52.328;13.070;2024-03-23T15:02:06;7.10;99.90
12815;DHT22;6472;52.328;13.070;2024-03-23T15:04:34;7.20;99.90
12815;DHT22;6472;52.328;13.070;2024-03-23T15:07:00;7.10;99.90
12815;DHT22;6472;52.328;13.070;2024-03-23T15:09:29;7.00;99.90
12815;DHT22;6472;52.328;13.070;2024-03-23T15:11:55;6.90;99.90
12815;DHT22;6472;52.328;13.070;2024-03-23T15:14:23;6.70;99.90
12815;DHT22;6472;52.328;13.070;2024-03-23T15:16:50;6.70;99.90
12815;DHT22;6472;52.328;13.070;2024-03-23T15:19:18;6.70;99.90
12815;DHT22;6472;52.328;13.070;2024-03-23T15:21:44;6.70;99.90
12815;DHT22;6472;52.328;13.070;2024-03-23T15:24:11;6.80;99.90
12815;DHT22;6472;52.328;13.070;2024-03-23T15:26:39;6.80;99.90
12815;DHT22;6472;52.328;13.070;2024-03-23T15:29:07;6.90;99.90
12815;DHT22;6472;52.328;13.070;2024-03-23T15:31:37;7.00;99.90
12815;DHT22;6472;52.328;13.070;2024-03-23T15:34:05;7.00;99.90
12815;DHT22;6472;52.328;13.070;2024-03-23T15:36:35;7.10;99.90
12815;DHT22;6472;52.328;13.070;2024-03-23T15:39:04;7.20;99.90
12815;DHT22;6472;52.328;13.070;2024-03-23T15:41:30;7.40;99.90
12815;DHT22;6472;52.328;13.070;2024-03-23T15:44:01;7.30;99.90
12815;DHT22;6472;52.328;13.070;2024-03-23T15:46:27;7.40;99.90
12815;DHT22;6472;52.328;13.070;2024-03-23T15:48:55;7.30;99.90
12815;DHT22;6472;52.328;13.070;2024-03-23T15:51:21;7.20;99.90
12815;DHT22;6472;52.328;13.070;2024-03-23T15:53:49;7.10;99.90
12815;DHT22;6472;52.328;13.070;2024-03-23T15:56:18;7.00;99.90
12815;DHT22;6472;52.328;13.070;2024-03-23T15:58:45;6.90;99.90
12815;DHT22;6472;52.328;13.070;2024-03-23T16:01:13;6.80;99.90
12815;DHT22;6472;52.328;13.070;2024-03-23T16:03:41;6.80;99.90
12815;DHT22;6472;52.328;13.070;2024-03-23T16:06:07;6.70;99.90
12815;DHT22;6472;52.328;13.070;2024-03-23T16:08:35;6.60;99.90
12815;DHT22;6472;52.328;13.070;2024-03-23T16:11:02;6.60;99.90
12815;DHT22;6472;52.328;13.070;2024-03-23T16:13:30;6.50;99.90
12815;DHT22;6472;52.328;13.070;2024-03-23T16:15:57;6.50;99.90
12815;DHT22;6472;52.328;13.070;2024-03-23T16:18:26;6.50;99.90
12815;DHT22;6472;52.328;13.070;2024-03-23T16:20:53;6.40;99.90
12815;DHT22;6472;52.328;13.070;2024-03-23T16:23:21;6.40;99.90
12815;DHT22;6472;52.328;13.070;2024-03-23T16:25:47;6.30;99.90
12815;DHT22;6472;52.328;13.070;2024-03-23T16:28:23;6.20;99.90
12815;DHT22;6472;52.328;13.070;2024-03-23T16:30:56;6.20;99.90
12815;DHT22;6472;52.328;13.070;2024-03-23T16:33:25;6.10;99.90
12815;DHT22;6472;52.328;13.070;2024-03-23T16:35:56;6.10;99.90
12815;DHT22;6472;52.328;13.070;2024-03-23T16:38:23;6.00;99.90
12815;DHT22;6472;52.328;13.070;2024-03-23T16:40:56;6.00;99.90